Time;durP1;ratioP1;P1;durP2;ratioP2;P2;SDS_P1;SDS_P2;PMS_P1;PMS_P2;Temp;Humidity;BMP_temperature;BMP_pressure;BME280_temperature;BME280_humidity;BME280_pressure;Samples;Min_cycle;Max_cycle;Signal;HPM_P1;HPM_P2
2023/11/17 00:01:10;;;;;;;0.90;0.82;;;5.10;93.40;;;;;;4631729;30;20043;-79
2023/11/17 00:03:36;;;;;;;1.02;0.73;;;5.10;93.40;;;;;;4631419;30;20050;-79
2023/11/17 00:06:03;;;;;;;1.40;0.80;;;5.10;93.40;;;;;;4630594;30;20044;-79
2023/11/17 00:08:29;;;;;;;1.33;0.80;;;5.20;93.40;;;;;;4646846;30;20524;-79
2023/11/17 00:10:55;;;;;;;0.90;0.60;;;5.10;93.40;;;;;;4697145;30;20041;-79
2023/11/17 00:13:21;;;;;;;1.02;0.80;;;5.00;93.40;;;;;;4697179;30;20046;-79
2023/11/17 00:15:48;;;;;;;1.23;1.00;;;5.00;93.40;;;;;;4682470;30;20048;-79
2023/11/17 00:18:14;;;;;;;0.82;0.70;;;5.00;93.40;;;;;;4696751;30;20049;-79
2023/11/17 00:20:40;;;;;;;1.20;0.80;;;5.00;93.40;;;;;;4669400;30;20563;-79
2023/11/17 00:23:06;;;;;;;1.00;0.70;;;5.00;93.40;;;;;;4743624;30;20063;-78
2023/11/17 00:25:33;;;;;;;1.00;0.88;;;5.00;93.40;;;;;;4770628;30;20075;-79
2023/11/17 00:27:59;;;;;;;0.52;0.50;;;5.10;93.50;;;;;;4786962;30;20043;-78
2023/11/17 00:30:24;;;;;;;1.27;0.70;;;5.00;93.40;;;;;;4770609;30;20410;-78
2023/11/17 00:32:50;;;;;;;0.98;0.80;;;5.00;93.40;;;;;;4770275;30;20044;-78
2023/11/17 00:35:16;;;;;;;2.22;0.90;;;5.00;93.40;;;;;;4756272;30;20110;-79
2023/11/17 00:37:43;;;;;;;1.25;1.00;;;4.90;93.40;;;;;;4755209;30;20114;-79
2023/11/17 00:40:10;;;;;;;1.40;1.00;;;5.00;93.40;;;;;;4770604;30;20490;-79
2023/11/17 00:42:36;;;;;;;1.38;0.82;;;5.00;93.40;;;;;;4741169;30;20042;-79
2023/11/17 00:45:03;;;;;;;0.93;0.60;;;5.00;93.40;;;;;;4770368;30;20040;-79
2023/11/17 00:47:30;;;;;;;1.00;0.80;;;5.00;93.40;;;;;;4786597;30;20505;-79
2023/11/17 00:49:56;;;;;;;1.02;0.70;;;5.00;93.40;;;;;;4770839;30;20043;-79
2023/11/17 00:52:21;;;;;;;1.25;1.00;;;5.00;93.40;;;;;;4770003;30;20135;-79
2023/11/17 00:54:49;;;;;;;1.67;1.10;;;4.90;93.30;;;;;;4770286;30;20574;-79
2023/11/17 00:57:16;;;;;;;1.70;1.00;;;4.90;93.30;;;;;;4786495;30;20044;-79
2023/11/17 00:59:42;;;;;;;1.23;0.88;;;4.90;93.40;;;;;;4770381;30;20219;-78
2023/11/17 01:02:08;;;;;;;1.35;0.93;;;4.90;93.40;;;;;;4769904;30;20118;-79
2023/11/17 01:04:34;;;;;;;0.95;0.75;;;4.80;93.40;;;;;;4769831;30;20047;-78
2023/11/17 01:07:00;;;;;;;0.70;0.60;;;4.80;93.40;;;;;;4769780;30;20036;-78
2023/11/17 01:09:26;;;;;;;1.10;0.70;;;4.70;93.40;;;;;;4772388;30;20499;-78
2023/11/17 01:11:52;;;;;;;1.33;0.60;;;4.80;93.40;;;;;;4773069;30;20039;-78
2023/11/17 01:14:18;;;;;;;0.95;0.60;;;4.70;93.40;;;;;;4757687;30;20036;-78
2023/11/17 01:16:44;;;;;;;0.47;0.45;;;4.70;93.40;;;;;;4788820;30;20049;-78
2023/11/17 01:19:10;;;;;;;0.90;0.73;;;4.70;93.40;;;;;;4743576;30;20103;-79
2023/11/17 01:21:36;;;;;;;1.10;0.80;;;4.70;93.40;;;;;;4772991;30;20193;-78
2023/11/17 01:24:03;;;;;;;0.85;0.70;;;4.70;93.40;;;;;;4742946;30;20039;-78
2023/11/17 01:26:29;;;;;;;1.60;1.00;;;4.80;93.40;;;;;;4757694;30;20122;-79
2023/11/17 01:28:55;;;;;;;0.80;0.80;;;4.70;93.40;;;;;;4758055;30;20062;-78
2023/11/17 01:31:21;;;;;;;0.95;0.80;;;4.70;93.40;;;;;;4758040;30;20066;-78
2023/11/17 01:33:48;;;;;;;1.50;0.90;;;4.70;93.40;;;;;;4772623;30;20498;-79
2023/11/17 01:36:15;;;;;;;0.73;0.70;;;4.70;93.40;;;;;;4757706;30;20040;-79
2023/11/17 01:38:41;;;;;;;1.30;0.90;;;4.60;93.40;;;;;;4757664;30;20138;-78
2023/11/17 01:41:06;;;;;;;0.95;0.73;;;4.60;93.40;;;;;;4772344;30;20140;-78
2023/11/17 01:43:32;;;;;;;1.55;0.90;;;4.60;93.40;;;;;;4758206;30;20051;-78
2023/11/17 01:45:58;;;;;;;1.38;1.00;;;4.60;93.40;;;;;;4772277;30;20031;-79
2023/11/17 01:48:24;;;;;;;1.08;0.77;;;4.60;93.40;;;;;;4757887;30;20059;-78
2023/11/17 01:50:50;;;;;;;1.15;0.80;;;4.60;93.40;;;;;;4772450;30;20043;-79
2023/11/17 01:53:17;;;;;;;0.98;0.60;;;4.60;93.40;;;;;;4757529;30;20126;-78
2023/11/17 01:55:44;;;;;;;0.95;0.77;;;4.60;93.40;;;;;;4772631;30;20105;-78
2023/11/17 01:58:12;;;;;;;1.80;1.05;;;4.60;93.40;;;;;;4788271;30;20108;-78
2023/11/17 02:00:38;;;;;;;1.00;0.77;;;4.60;93.40;;;;;;4772394;30;20116;-78
2023/11/17 02:03:05;;;;;;;0.85;0.70;;;4.60;93.40;;;;;;4757700;30;20971;-78
2023/11/17 02:05:33;;;;;;;1.17;0.85;;;4.60;93.40;;;;;;4757498;30;20368;-78
2023/11/17 02:08:18;;;;;;;1.73;1.08;;;4.60;93.40;;;;;;4788343;30;20045;-79
2023/11/17 02:11:03;;;;;;;1.27;0.90;;;4.50;93.30;;;;;;4772246;30;20048;-78
2023/11/17 02:13:40;;;;;;;0.70;0.50;;;4.60;93.40;;;;;;4772200;30;20535;-78
2023/11/17 02:16:11;;;;;;;1.63;0.90;;;4.60;93.30;;;;;;4788254;30;20455;-78
2023/11/17 02:18:40;;;;;;;0.98;0.70;;;4.80;93.40;;;;;;4772272;30;20039;-78
2023/11/17 02:21:07;;;;;;;1.63;0.80;;;4.60;93.30;;;;;;4771863;30;20048;-78
2023/11/17 02:23:34;;;;;;;1.13;0.80;;;4.60;93.30;;;;;;4757119;30;20467;-78
2023/11/17 02:26:18;;;;;;;0.80;0.60;;;4.60;93.30;;;;;;4757019;30;20475;-78
2023/11/17 02:28:59;;;;;;;1.33;0.82;;;4.60;93.30;;;;;;4772144;30;20044;-78
2023/11/17 02:31:31;;;;;;;1.10;0.60;;;4.60;93.30;;;;;;4771595;30;20043;-79
2023/11/17 02:34:03;;;;;;;1.83;1.23;;;4.60;93.30;;;;;;4788359;30;21271;-78
2023/11/17 02:36:32;;;;;;;1.13;0.80;;;4.60;93.30;;;;;;4757149;30;20043;-78
2023/11/17 02:39:25;;;;;;;0.82;0.82;;;4.50;93.30;;;;;;4788498;30;20062;-78
2023/11/17 02:41:56;;;;;;;0.90;0.70;;;4.50;93.30;;;;;;4761993;30;20137;-78
2023/11/17 02:44:22;;;;;;;0.85;0.65;;;4.60;93.30;;;;;;4788241;30;20395;-78
2023/11/17 02:46:58;;;;;;;1.13;0.80;;;4.60;93.30;;;;;;4756442;30;20491;-78
2023/11/17 02:49:41;;;;;;;0.70;0.63;;;4.60;93.30;;;;;;4772832;30;20058;-78
2023/11/17 02:52:15;;;;;;;1.45;0.95;;;4.50;93.30;;;;;;4772689;30;20130;-78
2023/11/17 02:54:40;;;;;;;1.20;0.98;;;4.50;93.30;;;;;;4771369;30;20062;-78
2023/11/17 02:57:07;;;;;;;1.20;0.65;;;4.50;93.30;;;;;;4788163;30;20487;-78
2023/11/17 02:59:35;;;;;;;1.55;1.00;;;4.60;93.30;;;;;;4771781;30;20141;-79
2023/11/17 03:02:02;;;;;;;1.40;1.02;;;4.50;93.30;;;;;;4756818;30;20043;-78
2023/11/17 03:04:28;;;;;;;1.25;0.90;;;4.50;93.30;;;;;;4771700;30;20052;-78
2023/11/17 03:06:55;;;;;;;1.02;0.70;;;4.50;93.30;;;;;;4771096;30;20123;-78
2023/11/17 03:09:23;;;;;;;1.02;0.90;;;4.50;93.30;;;;;;4787726;30;20047;-78
2023/11/17 03:11:50;;;;;;;1.75;1.08;;;4.50;93.30;;;;;;4771008;30;20487;-78
2023/11/17 03:14:18;;;;;;;0.90;0.77;;;4.50;93.30;;;;;;4771269;30;20039;-78
2023/11/17 03:16:49;;;;;;;1.58;1.10;;;4.60;93.30;;;;;;4771060;30;20043;-78
2023/11/17 03:19:15;;;;;;;0.98;0.80;;;4.50;93.30;;;;;;4771599;30;20134;-78
2023/11/17 03:21:41;;;;;;;1.80;0.80;;;4.60;93.30;;;;;;4771014;30;20047;-78
2023/11/17 03:24:16;;;;;;;1.85;1.02;;;4.60;93.30;;;;;;4770940;30;20077;-79
2023/11/17 03:26:44;;;;;;;1.15;0.73;;;4.50;93.30;;;;;;4786999;30;20039;-78
2023/11/17 03:29:14;;;;;;;1.38;1.02;;;4.60;93.30;;;;;;4771085;30;20045;-78
2023/11/17 03:31:46;;;;;;;1.27;0.90;;;4.70;93.30;;;;;;4770119;30;20491;-79
2023/11/17 03:34:12;;;;;;;0.68;0.63;;;4.60;93.30;;;;;;4742972;30;20345;-78
2023/11/17 03:36:38;;;;;;;1.33;0.90;;;4.60;93.30;;;;;;4755889;30;20042;-78
2023/11/17 03:39:04;;;;;;;1.63;1.00;;;4.60;93.30;;;;;;4786887;30;20062;-78
2023/11/17 03:41:32;;;;;;;1.67;0.93;;;4.60;93.20;;;;;;4770806;30;20471;-78
2023/11/17 03:43:57;;;;;;;1.02;0.70;;;4.60;93.30;;;;;;4787328;30;20433;-78
2023/11/17 03:46:25;;;;;;;1.00;0.80;;;4.60;93.20;;;;;;4770794;30;20035;-78
2023/11/17 03:48:52;;;;;;;1.77;1.10;;;4.60;93.20;;;;;;4787546;30;20051;-78
2023/11/17 03:51:18;;;;;;;2.35;1.13;;;4.70;93.20;;;;;;4770875;30;20054;-79
2023/11/17 03:53:44;;;;;;;1.15;0.80;;;4.70;93.20;;;;;;4755998;30;20047;-78
2023/11/17 03:56:09;;;;;;;1.30;0.82;;;4.60;93.20;;;;;;4755779;30;20046;-78
2023/11/17 03:58:35;;;;;;;1.10;0.70;;;4.60;93.20;;;;;;4770487;30;20903;-78
2023/11/17 04:01:01;;;;;;;1.00;0.80;;;4.60;93.20;;;;;;4771079;30;20368;-78
2023/11/17 04:03:27;;;;;;;1.13;0.73;;;4.60;93.20;;;;;;4770685;30;20100;-78
2023/11/17 04:05:53;;;;;;;0.77;0.70;;;4.60;93.20;;;;;;4755770;30;20035;-78
2023/11/17 04:08:18;;;;;;;1.42;0.90;;;4.60;93.20;;;;;;4787157;30;20040;-79
2023/11/17 04:10:45;;;;;;;1.27;0.80;;;4.60;93.20;;;;;;4770254;30;20039;-78
2023/11/17 04:13:12;;;;;;;0.90;0.60;;;4.60;93.20;;;;;;4786735;30;20126;-78
2023/11/17 04:15:38;;;;;;;1.35;0.77;;;4.60;93.20;;;;;;4770735;30;20126;-78
2023/11/17 04:18:04;;;;;;;1.40;0.95;;;4.60;93.30;;;;;;4755410;30;20063;-78
2023/11/17 04:20:29;;;;;;;1.35;1.00;;;4.50;93.30;;;;;;4786349;30;20494;-78
2023/11/17 04:22:55;;;;;;;1.30;0.90;;;4.60;93.30;;;;;;4770318;30;20050;-78
2023/11/17 04:25:22;;;;;;;1.15;0.80;;;4.60;93.30;;;;;;4755328;30;20027;-78
2023/11/17 04:27:48;;;;;;;1.50;0.93;;;4.50;93.30;;;;;;4770499;30;20039;-78
2023/11/17 04:30:14;;;;;;;0.85;0.70;;;4.60;93.30;;;;;;4755342;30;20054;-78
2023/11/17 04:32:40;;;;;;;1.27;0.90;;;4.70;93.30;;;;;;4740540;30;20043;-78
2023/11/17 04:35:08;;;;;;;1.40;0.90;;;4.60;93.30;;;;;;4786049;30;20126;-79
2023/11/17 04:37:38;;;;;;;1.20;0.80;;;4.60;93.30;;;;;;4786228;30;20055;-78
2023/11/17 04:40:06;;;;;;;1.17;0.80;;;4.60;93.30;;;;;;4786321;30;20116;-78
2023/11/17 04:42:31;;;;;;;2.10;1.10;;;4.60;93.30;;;;;;4786635;29;20040;-78
2023/11/17 04:44:57;;;;;;;1.08;0.90;;;4.60;93.30;;;;;;4776151;30;20042;-78
2023/11/17 04:47:25;;;;;;;1.48;0.90;;;4.70;93.30;;;;;;4760921;30;20069;-79
2023/11/17 04:49:51;;;;;;;1.50;1.00;;;4.70;93.30;;;;;;4776077;30;20039;-78
2023/11/17 04:52:16;;;;;;;1.33;0.80;;;4.70;93.20;;;;;;4775891;30;20047;-78
2023/11/17 04:54:44;;;;;;;1.50;0.90;;;4.70;93.20;;;;;;4775731;30;20066;-78
2023/11/17 04:57:10;;;;;;;0.88;0.70;;;4.70;93.20;;;;;;4775923;30;20035;-78
2023/11/17 04:59:36;;;;;;;0.77;0.75;;;4.70;93.20;;;;;;4775911;30;20051;-78
2023/11/17 05:02:02;;;;;;;1.48;1.00;;;4.70;93.20;;;;;;4775958;30;20046;-78
2023/11/17 05:04:27;;;;;;;1.85;1.00;;;4.80;93.20;;;;;;4761186;30;20382;-78
2023/11/17 05:06:53;;;;;;;1.23;0.85;;;4.80;93.20;;;;;;4746827;30;20036;-78
2023/11/17 05:09:19;;;;;;;0.40;0.40;;;4.80;93.20;;;;;;4761521;30;20043;-78
2023/11/17 05:11:44;;;;;;;1.02;0.85;;;4.80;93.20;;;;;;4761482;30;20055;-78
2023/11/17 05:14:11;;;;;;;0.73;0.70;;;4.80;93.20;;;;;;4792314;30;20039;-78
2023/11/17 05:16:37;;;;;;;0.85;0.70;;;4.80;93.20;;;;;;4761334;30;20051;-78
2023/11/17 05:19:03;;;;;;;1.60;1.10;;;4.80;93.20;;;;;;4791918;30;20050;-78
2023/11/17 05:21:32;;;;;;;1.30;1.00;;;4.80;93.10;;;;;;4792015;30;20457;-78
2023/11/17 05:24:00;;;;;;;1.27;0.95;;;4.80;93.10;;;;;;4776155;30;20042;-78
2023/11/17 05:26:26;;;;;;;1.67;1.00;;;4.80;93.20;;;;;;4761261;30;20070;-78
2023/11/17 05:28:51;;;;;;;1.20;0.90;;;4.80;93.20;;;;;;4792249;30;20062;-78
2023/11/17 05:31:20;;;;;;;1.17;1.00;;;4.90;93.20;;;;;;4775888;30;20075;-78
2023/11/17 05:33:46;;;;;;;1.48;0.98;;;4.80;93.20;;;;;;4776266;30;20491;-78
2023/11/17 05:36:13;;;;;;;0.98;0.73;;;4.90;93.20;;;;;;4775889;30;20039;-78
2023/11/17 05:38:38;;;;;;;1.20;0.85;;;4.90;93.20;;;;;;4775978;30;20108;-78
2023/11/17 05:41:05;;;;;;;0.80;0.80;;;4.90;93.20;;;;;;4792061;30;20031;-79
2023/11/17 05:43:31;;;;;;;1.75;1.10;;;4.90;93.20;;;;;;4776018;30;20044;-78
2023/11/17 05:46:00;;;;;;;0.55;0.55;;;4.90;93.20;;;;;;4791456;30;20092;-78
2023/11/17 05:48:25;;;;;;;1.13;0.75;;;4.90;93.20;;;;;;4791727;30;20048;-79
2023/11/17 05:50:51;;;;;;;0.68;0.68;;;4.90;93.20;;;;;;4775473;30;20100;-78
2023/11/17 05:53:17;;;;;;;1.48;0.80;;;4.90;93.20;;;;;;4775398;30;20486;-80
2023/11/17 05:55:42;;;;;;;2.05;1.02;;;5.00;93.20;;;;;;4776850;30;20100;-79
2023/11/17 05:58:08;;;;;;;1.05;0.88;;;5.00;93.20;;;;;;4796855;29;20754;-80
2023/11/17 06:00:34;;;;;;;1.77;1.08;;;4.90;93.20;;;;;;4794042;30;20050;-78
2023/11/17 06:03:00;;;;;;;1.08;0.90;;;5.00;93.20;;;;;;4772262;30;20423;-78
2023/11/17 06:05:25;;;;;;;1.10;0.88;;;5.00;93.20;;;;;;4778330;30;20047;-78
2023/11/17 06:07:51;;;;;;;1.08;0.68;;;4.80;93.20;;;;;;4792828;30;20483;-77
2023/11/17 06:10:17;;;;;;;0.80;0.73;;;4.90;93.30;;;;;;4779336;30;20050;-78
2023/11/17 06:12:42;;;;;;;0.88;0.73;;;4.90;93.30;;;;;;4768760;30;20067;-78
2023/11/17 06:15:10;;;;;;;1.25;0.80;;;4.90;93.30;;;;;;4805318;29;20051;-79
2023/11/17 06:17:36;;;;;;;1.45;1.00;;;4.90;93.20;;;;;;4758634;30;20036;-77
2023/11/17 06:20:03;;;;;;;1.17;0.80;;;4.90;93.30;;;;;;4789402;30;20055;-78
2023/11/17 06:22:29;;;;;;;0.88;0.70;;;5.00;93.30;;;;;;4772740;30;20131;-78
2023/11/17 06:24:56;;;;;;;1.15;0.80;;;5.00;93.50;;;;;;4772761;30;20475;-78
2023/11/17 06:27:23;;;;;;;0.70;0.60;;;5.00;93.20;;;;;;4772503;30;20093;-78
2023/11/17 06:29:50;;;;;;;1.38;0.82;;;5.00;93.30;;;;;;4757870;30;20070;-77
2023/11/17 06:32:16;;;;;;;1.10;0.70;;;5.00;93.30;;;;;;4772909;30;20124;-77
2023/11/17 06:34:46;;;;;;;0.70;0.70;;;5.00;93.30;;;;;;4768501;30;20065;-78
2023/11/17 06:37:12;;;;;;;0.88;0.77;;;5.00;93.50;;;;;;4758547;30;20081;-77
2023/11/17 06:39:39;;;;;;;0.88;0.80;;;5.00;93.30;;;;;;4788209;30;20054;-77
2023/11/17 06:42:05;;;;;;;0.98;0.80;;;5.00;93.30;;;;;;4788308;30;20483;-77
2023/11/17 06:44:31;;;;;;;1.15;0.88;;;5.00;93.30;;;;;;4788398;30;20083;-76
2023/11/17 06:46:56;;;;;;;1.05;0.80;;;5.00;93.30;;;;;;4772991;30;20039;-77
2023/11/17 06:49:22;;;;;;;0.82;0.73;;;5.00;93.30;;;;;;4789994;30;20043;-77
2023/11/17 06:51:50;;;;;;;1.33;0.88;;;4.90;93.20;;;;;;4758746;30;20105;-77
2023/11/17 06:54:17;;;;;;;0.90;0.80;;;5.00;93.30;;;;;;4758923;30;20151;-77
2023/11/17 06:56:46;;;;;;;1.35;0.82;;;5.00;93.30;;;;;;4789697;30;20043;-77
2023/11/17 06:59:14;;;;;;;1.17;0.80;;;5.00;93.30;;;;;;4758200;30;20054;-77
2023/11/17 07:01:41;;;;;;;1.20;0.90;;;5.00;93.30;;;;;;4758380;30;20498;-77
2023/11/17 07:04:07;;;;;;;1.42;0.90;;;5.00;93.30;;;;;;4788697;30;20043;-77
2023/11/17 07:06:34;;;;;;;0.73;0.70;;;4.90;93.20;;;;;;4743575;30;20070;-77
2023/11/17 07:09:01;;;;;;;0.80;0.70;;;5.00;93.30;;;;;;4788907;30;20046;-77
2023/11/17 07:11:29;;;;;;;1.15;0.80;;;5.00;93.30;;;;;;4756807;30;20039;-76
2023/11/17 07:13:55;;;;;;;2.20;1.20;;;5.00;93.30;;;;;;4756706;30;20047;-76
2023/11/17 07:16:21;;;;;;;1.02;0.90;;;5.00;93.30;;;;;;4787203;30;20063;-76
2023/11/17 07:18:47;;;;;;;1.17;0.90;;;5.00;93.30;;;;;;4771823;30;20503;-76
2023/11/17 07:21:14;;;;;;;1.42;1.00;;;5.00;93.30;;;;;;4787950;30;20035;-76
2023/11/17 07:23:43;;;;;;;1.15;0.85;;;5.00;93.30;;;;;;4771489;30;20047;-76
2023/11/17 07:26:25;;;;;;;1.10;0.93;;;5.00;93.30;;;;;;4787477;30;20104;-76
2023/11/17 07:28:51;;;;;;;;;;;5.00;93.30;;;;;;4787787;30;20059;-77
2023/11/17 07:31:18;;;;;;;1.23;0.80;;;5.00;93.30;;;;;;4787543;30;20074;-78
2023/11/17 07:33:44;;;;;;;1.50;0.80;;;5.00;93.30;;;;;;4756996;30;20047;-77
2023/11/17 07:36:15;;;;;;;1.00;0.70;;;5.10;93.30;;;;;;4756318;30;20047;-77
2023/11/17 07:38:42;;;;;;;0.73;0.63;;;5.10;93.50;;;;;;4771192;30;20058;-77
2023/11/17 07:41:08;;;;;;;1.15;0.80;;;5.10;93.20;;;;;;4771233;30;20074;-77
2023/11/17 07:43:36;;;;;;;1.27;0.80;;;5.10;93.20;;;;;;4771254;30;20047;-77
2023/11/17 07:46:02;;;;;;;1.25;0.90;;;5.10;93.20;;;;;;4771668;30;20032;-79
2023/11/17 07:48:31;;;;;;;1.38;0.77;;;5.10;93.20;;;;;;4771347;30;20164;-78
2023/11/17 07:50:58;;;;;;;0.82;0.77;;;5.20;93.30;;;;;;4776455;30;20394;-77
2023/11/17 07:53:23;;;;;;;0.88;0.80;;;5.20;93.30;;;;;;4771289;30;20046;-77
2023/11/17 07:55:52;;;;;;;1.23;0.82;;;5.20;93.20;;;;;;4786790;30;20413;-77
2023/11/17 07:58:20;;;;;;;0.98;0.82;;;5.20;93.20;;;;;;4741418;30;20123;-77
2023/11/17 08:00:48;;;;;;;1.20;0.88;;;5.30;93.20;;;;;;4771055;30;20055;-78
2023/11/17 08:03:14;;;;;;;1.35;0.95;;;5.30;93.20;;;;;;4757929;30;20538;-79
2023/11/17 08:05:40;;;;;;;1.42;0.98;;;5.30;93.20;;;;;;4756027;30;20036;-77
2023/11/17 08:08:07;;;;;;;1.00;0.88;;;5.30;93.20;;;;;;4755910;30;20028;-77
2023/11/17 08:10:33;;;;;;;1.13;0.88;;;5.40;93.20;;;;;;4770664;30;20046;-77
2023/11/17 08:13:00;;;;;;;1.17;0.90;;;5.40;93.20;;;;;;4755988;30;20047;-77
2023/11/17 08:15:28;;;;;;;1.30;1.00;;;5.40;93.20;;;;;;4771256;30;20070;-77
2023/11/17 08:17:55;;;;;;;0.80;0.70;;;5.40;93.10;;;;;;4771989;30;20084;-79
2023/11/17 08:20:21;;;;;;;1.02;0.90;;;5.40;93.10;;;;;;4771440;30;20055;-79
2023/11/17 08:22:47;;;;;;;1.73;1.00;;;5.50;93.10;;;;;;4757027;30;20399;-79
2023/11/17 08:25:12;;;;;;;1.02;0.90;;;5.50;93.10;;;;;;4787398;30;20039;-77
2023/11/17 08:27:38;;;;;;;1.55;1.13;;;5.60;93.10;;;;;;4758656;30;20036;-77
2023/11/17 08:30:07;;;;;;;1.48;1.10;;;5.60;93.10;;;;;;4786753;30;20047;-77
2023/11/17 08:32:36;;;;;;;2.05;1.08;;;5.80;93.10;;;;;;4787241;30;20043;-77
2023/11/17 08:35:03;;;;;;;1.33;1.00;;;5.70;93.10;;;;;;4772903;30;20043;-78
2023/11/17 08:37:32;;;;;;;1.27;0.93;;;5.70;93.10;;;;;;4772881;30;20043;-78
2023/11/17 08:39:59;;;;;;;1.25;0.80;;;5.80;93.10;;;;;;4771148;30;20138;-79
2023/11/17 08:42:25;;;;;;;1.98;1.20;;;5.70;93.00;;;;;;4787078;30;20039;-80
2023/11/17 08:44:51;;;;;;;1.05;0.90;;;5.70;93.00;;;;;;4786793;30;20039;-78
2023/11/17 08:47:17;;;;;;;2.10;1.20;;;5.60;93.00;;;;;;4770297;30;20050;-79
2023/11/17 08:49:43;;;;;;;0.82;0.70;;;5.70;93.00;;;;;;4770137;30;20051;-78
2023/11/17 08:52:08;;;;;;;1.10;0.90;;;5.80;93.10;;;;;;4786196;30;20054;-79
2023/11/17 08:54:34;;;;;;;1.35;1.00;;;5.80;93.00;;;;;;4741021;30;20075;-79
2023/11/17 08:57:00;;;;;;;1.25;0.88;;;5.80;93.00;;;;;;4755249;30;20042;-79
2023/11/17 08:59:26;;;;;;;1.02;0.90;;;5.80;93.10;;;;;;4770166;30;20492;-79
2023/11/17 09:01:52;;;;;;;1.45;1.02;;;5.80;93.10;;;;;;4741298;30;20050;-79
2023/11/17 09:04:18;;;;;;;1.38;1.10;;;5.80;93.10;;;;;;4755255;30;20043;-79
2023/11/17 09:06:44;;;;;;;1.30;1.00;;;5.80;93.10;;;;;;4786616;30;20509;-79
2023/11/17 09:09:12;;;;;;;1.65;1.10;;;5.90;93.10;;;;;;4770003;30;20070;-78
2023/11/17 09:11:38;;;;;;;1.27;0.90;;;5.90;93.10;;;;;;4786220;30;20101;-78
2023/11/17 09:14:06;;;;;;;2.50;1.15;;;5.90;93.10;;;;;;4769894;30;20047;-78
2023/11/17 09:16:34;;;;;;;1.15;0.93;;;5.90;93.10;;;;;;4770290;30;20057;-78
2023/11/17 09:19:01;;;;;;;1.88;1.13;;;5.90;93.00;;;;;;4740789;30;20526;-79
2023/11/17 09:21:29;;;;;;;1.35;0.95;;;6.00;93.10;;;;;;4769562;30;20059;-79
2023/11/17 09:23:55;;;;;;;1.48;1.00;;;6.00;93.10;;;;;;4755495;30;20035;-78
2023/11/17 09:26:22;;;;;;;2.30;1.20;;;6.00;93.00;;;;;;4755056;30;20491;-79
2023/11/17 09:28:47;;;;;;;2.70;1.50;;;6.10;93.10;;;;;;4785805;29;20058;-78
2023/11/17 09:31:13;;;;;;;2.17;1.48;;;6.00;93.00;;;;;;4756998;30;20561;-78
2023/11/17 09:33:39;;;;;;;1.65;1.02;;;6.10;93.00;;;;;;4772913;30;20053;-79
2023/11/17 09:36:06;;;;;;;3.22;1.52;;;6.10;93.00;;;;;;4788859;30;20039;-79
2023/11/17 09:38:32;;;;;;;2.70;1.40;;;6.20;93.00;;;;;;4757909;30;20471;-79
2023/11/17 09:40:58;;;;;;;2.03;1.38;;;6.40;93.00;;;;;;4758757;30;20067;-79
2023/11/17 09:43:36;;;;;;;1.88;1.15;;;6.30;92.90;;;;;;4758035;30;20047;-79
2023/11/17 09:46:05;;;;;;;3.30;1.80;;;6.40;92.90;;;;;;4759028;30;20036;-79
2023/11/17 09:48:36;;;;;;;1.45;1.10;;;6.50;92.90;;;;;;4772554;30;20040;-78
2023/11/17 09:51:03;;;;;;;2.45;1.50;;;6.50;92.80;;;;;;4773043;30;20039;-78
2023/11/17 09:53:33;;;;;;;1.58;1.20;;;6.60;92.80;;;;;;4757959;30;20490;-78
2023/11/17 09:56:03;;;;;;;2.13;1.33;;;6.70;92.80;;;;;;4757843;30;20447;-80
2023/11/17 09:58:29;;;;;;;2.50;1.42;;;6.60;93.00;;;;;;4758321;30;20092;-79
2023/11/17 10:00:56;;;;;;;2.05;1.30;;;6.70;93.00;;;;;;4770797;30;20047;-78
2023/11/17 10:03:22;;;;;;;1.77;1.15;;;6.80;92.70;;;;;;4772959;30;20036;-79
2023/11/17 10:05:50;;;;;;;2.45;1.48;;;6.80;92.70;;;;;;4757742;30;20031;-79
2023/11/17 10:08:17;;;;;;;2.00;1.17;;;6.80;92.70;;;;;;4788402;30;20035;-79
2023/11/17 10:10:45;;;;;;;3.72;1.95;;;6.90;92.70;;;;;;4772936;30;20044;-78
2023/11/17 10:13:13;;;;;;;2.60;1.63;;;7.00;92.70;;;;;;4772552;30;20035;-78
2023/11/17 10:15:44;;;;;;;2.65;1.70;;;7.00;92.70;;;;;;4772349;30;20050;-79
2023/11/17 10:18:12;;;;;;;3.58;2.03;;;7.10;92.70;;;;;;4772623;30;20042;-79
2023/11/17 10:20:38;;;;;;;4.05;2.00;;;7.10;92.60;;;;;;4788188;30;20048;-78
2023/11/17 10:23:05;;;;;;;2.30;1.55;;;7.20;92.60;;;;;;4757322;30;20043;-79
2023/11/17 10:25:32;;;;;;;3.03;1.88;;;7.20;92.60;;;;;;4772265;30;20039;-79
2023/11/17 10:27:59;;;;;;;2.58;1.70;;;7.30;92.50;;;;;;4788430;30;20043;-79
2023/11/17 10:30:30;;;;;;;2.95;1.73;;;7.30;92.50;;;;;;4772024;30;20043;-79
2023/11/17 10:33:02;;;;;;;3.50;2.28;;;7.30;92.50;;;;;;4743272;30;20376;-78
2023/11/17 10:35:34;;;;;;;4.38;2.20;;;7.40;92.50;;;;;;4743241;30;20043;-79
2023/11/17 10:38:04;;;;;;;2.92;1.67;;;7.40;92.50;;;;;;4772036;30;20510;-79
2023/11/17 10:40:31;;;;;;;2.63;1.60;;;7.40;92.40;;;;;;4742765;30;20061;-79
2023/11/17 10:43:04;;;;;;;2.42;1.70;;;7.50;92.50;;;;;;4771788;30;20038;-79
2023/11/17 10:45:32;;;;;;;3.45;2.00;;;7.50;92.50;;;;;;4788684;30;20242;-79
2023/11/17 10:48:00;;;;;;;3.90;1.98;;;7.60;92.50;;;;;;4757098;30;20036;-79
2023/11/17 10:50:28;;;;;;;2.30;1.58;;;7.60;92.50;;;;;;4771533;30;20043;-79
2023/11/17 10:52:57;;;;;;;4.65;2.50;;;7.70;92.50;;;;;;4772678;30;20155;-78
2023/11/17 10:55:34;;;;;;;3.10;1.73;;;7.80;92.40;;;;;;4772179;30;20042;-78
2023/11/17 10:58:06;;;;;;;2.10;1.50;;;7.90;92.40;;;;;;4787985;30;20047;-79
2023/11/17 11:00:38;;;;;;;3.38;1.75;;;7.90;92.30;;;;;;4742235;30;20154;-79
2023/11/17 11:03:07;;;;;;;3.58;1.98;;;7.90;92.30;;;;;;4757749;30;20460;-78
2023/11/17 11:05:33;;;;;;;3.15;2.00;;;8.00;92.30;;;;;;4771956;30;20039;-79
2023/11/17 11:08:01;;;;;;;3.92;2.05;;;8.20;92.20;;;;;;4771811;30;20099;-79
2023/11/17 11:10:27;;;;;;;3.20;1.80;;;8.30;92.10;;;;;;4771762;30;20053;-79
2023/11/17 11:12:53;;;;;;;2.65;1.58;;;8.40;92.00;;;;;;4787999;30;20391;-80
2023/11/17 11:15:20;;;;;;;3.25;1.67;;;8.40;92.00;;;;;;4757286;30;20055;-79
2023/11/17 11:17:55;;;;;;;2.67;1.60;;;8.50;92.00;;;;;;4772173;30;20360;-80
2023/11/17 11:20:21;;;;;;;1.80;1.23;;;8.50;91.90;;;;;;4756411;30;20522;-80
2023/11/17 11:22:51;;;;;;;1.88;1.30;;;8.60;91.90;;;;;;4756405;30;20046;-80
2023/11/17 11:25:19;;;;;;;2.30;1.40;;;8.70;91.90;;;;;;4756599;30;20035;-80
2023/11/17 11:27:47;;;;;;;1.48;1.13;;;8.70;91.90;;;;;;4756422;30;20466;-80
2023/11/17 11:30:15;;;;;;;1.17;1.00;;;8.70;91.80;;;;;;4787911;30;20063;-80
2023/11/17 11:32:44;;;;;;;1.35;1.05;;;8.80;91.90;;;;;;4756753;30;20093;-80
2023/11/17 11:35:10;;;;;;;1.75;1.20;;;8.80;91.80;;;;;;4756148;30;20043;-79
2023/11/17 11:37:38;;;;;;;1.40;1.02;;;8.80;91.80;;;;;;4756333;30;20100;-79
2023/11/17 11:40:06;;;;;;;2.05;1.00;;;8.90;91.80;;;;;;4771364;30;20047;-80
2023/11/17 11:42:32;;;;;;;2.03;1.27;;;8.90;91.80;;;;;;4771413;30;20490;-79
2023/11/17 11:45:01;;;;;;;1.98;0.93;;;8.90;91.70;;;;;;4756063;30;20031;-79
2023/11/17 11:47:28;;;;;;;1.23;1.00;;;9.10;91.70;;;;;;4771088;30;20055;-80
2023/11/17 11:49:57;;;;;;;1.20;1.00;;;9.20;91.60;;;;;;4787324;30;20043;-80
2023/11/17 11:52:30;;;;;;;1.10;0.80;;;9.30;91.60;;;;;;4755405;30;20424;-79
2023/11/17 11:54:57;;;;;;;1.90;1.20;;;9.40;91.40;;;;;;4756469;30;20050;-78
2023/11/17 11:57:25;;;;;;;1.88;1.23;;;9.50;91.40;;;;;;4786990;30;20458;-78
2023/11/17 11:59:52;;;;;;;2.20;1.40;;;9.60;91.30;;;;;;4771429;30;20388;-78
2023/11/17 12:02:17;;;;;;;1.95;1.25;;;9.70;91.20;;;;;;4787486;30;20043;-78
2023/11/17 12:04:45;;;;;;;1.60;1.05;;;9.80;91.20;;;;;;4756345;30;20443;-78
2023/11/17 12:07:33;;;;;;;1.67;1.20;;;9.80;91.10;;;;;;4787299;30;20035;-78
2023/11/17 12:10:01;;;;;;;2.13;1.20;;;9.80;91.00;;;;;;4771688;30;20073;-78
2023/11/17 12:12:28;;;;;;;2.30;1.23;;;9.90;91.00;;;;;;4770959;30;20039;-77
2023/11/17 12:14:54;;;;;;;1.40;1.10;;;9.90;91.00;;;;;;4771040;30;20047;-78
2023/11/17 12:17:20;;;;;;;1.60;0.95;;;9.90;90.90;;;;;;4770475;30;20035;-78
2023/11/17 12:19:47;;;;;;;1.85;1.00;;;10.00;91.00;;;;;;4770935;30;20063;-78
2023/11/17 12:22:13;;;;;;;1.35;0.80;;;10.00;90.90;;;;;;4786782;30;20047;-79
2023/11/17 12:24:40;;;;;;;1.38;0.98;;;10.10;90.90;;;;;;4773928;30;20050;-78
2023/11/17 12:27:05;;;;;;;1.48;0.90;;;10.20;90.90;;;;;;4786868;30;20027;-79
2023/11/17 12:29:32;;;;;;;1.25;0.80;;;10.20;90.70;;;;;;4771847;30;20070;-78
2023/11/17 12:32:03;;;;;;;1.45;1.05;;;10.20;90.60;;;;;;4789214;30;20040;-79
2023/11/17 12:34:29;;;;;;;1.73;0.97;;;10.20;90.60;;;;;;4773083;30;20043;-78
2023/11/17 12:36:57;;;;;;;0.70;0.70;;;10.10;90.60;;;;;;4770586;30;20134;-79
2023/11/17 12:39:38;;;;;;;1.67;1.00;;;10.00;90.70;;;;;;4755368;30;20530;-79
2023/11/17 12:42:05;;;;;;;0.90;0.70;;;9.80;90.80;;;;;;4770483;30;20040;-79
2023/11/17 12:44:34;;;;;;;0.75;0.70;;;9.80;90.80;;;;;;4770278;30;20057;-79
2023/11/17 12:46:59;;;;;;;0.73;0.60;;;9.70;90.90;;;;;;4771913;30;20040;-80
2023/11/17 12:49:25;;;;;;;0.75;0.50;;;9.60;90.90;;;;;;4787434;30;20093;-79
2023/11/17 12:51:51;;;;;;;0.90;0.60;;;9.50;91.00;;;;;;4755281;30;20055;-79
2023/11/17 12:54:18;;;;;;;0.60;0.60;;;9.50;91.00;;;;;;4769005;30;20487;-80
2023/11/17 12:56:44;;;;;;;1.30;0.77;;;9.50;91.00;;;;;;4741166;30;20491;-79
2023/11/17 12:59:11;;;;;;;1.35;0.88;;;9.50;91.10;;;;;;4755302;30;20554;-78